Kaprifol — 5BXX2 — position and weather

sailwx.info

Track history (hours):
 
Tides and Currents Weather Stations Pressure Air Temp Water Temp Dewpoint Dewpoint Depression Visibility Wind Speed Wind Dir Waves Ship Positions

Kaprifol

Last reported at 2017-Oct-19 19:58 UTC. Time now 2017-Oct-19 20:17 UTC.
Position N 66°22' E 012°23'.

Length 89 m; draft 5.7 m.

Type: Tanker. MMSI: 210445000.

Date/timePositionNaut miles runAvg speedWind from/ knotsBaromVisibWave heightAir tempDewpointWater temp
2017-Oct-19 19:58N 66°22' E 012°23'0 0.0
2017-Oct-19 19:28N 66°22' E 012°23'0 0.0
2017-Oct-19 18:58N 66°22' E 012°23'0 0.0
2017-Oct-19 18:28N 66°22' E 012°23'0 0.0
2017-Oct-19 17:58N 66°22' E 012°23'0 0.0
2017-Oct-19 17:28N 66°22' E 012°23'0 0.0
2017-Oct-19 16:58N 66°22' E 012°23'0 0.0
2017-Oct-19 16:28N 66°22' E 012°23'0 0.0
2017-Oct-19 15:58N 66°22' E 012°23'0 0.0
2017-Oct-19 15:28N 66°22' E 012°23'0 0.0
2017-Oct-19 14:58N 66°22' E 012°23'0 0.0
2017-Oct-19 14:28N 66°22' E 012°23'0 0.0
2017-Oct-19 13:58N 66°22' E 012°23'0 0.0
2017-Oct-19 13:28N 66°22' E 012°23'0 0.0
2017-Oct-19 12:58N 66°22' E 012°23'0 0.0
2017-Oct-19 12:28N 66°22' E 012°23'0 0.0
2017-Oct-19 11:58N 66°22' E 012°23'0 0.0
2017-Oct-19 11:28N 66°22' E 012°23'0 0.0
2017-Oct-19 11:01N 66°22' E 012°23'0 0.0
2017-Oct-19 10:31N 66°22' E 012°23'0 0.0
2017-Oct-19 10:01N 66°22' E 012°23'0 0.0
2017-Oct-19 09:30N 66°22' E 012°23'0 0.0
2017-Oct-19 09:00N 66°22' E 012°23'0 0.0
2017-Oct-19 08:30N 66°22' E 012°23'0 0.0
2017-Oct-19 08:00N 66°22' E 012°23'0 0.0
2017-Oct-19 07:30N 66°22' E 012°23'0 0.0
2017-Oct-19 07:00N 66°22' E 012°23'0 0.0
2017-Oct-19 06:30N 66°22' E 012°23'0 0.0
2017-Oct-19 06:00N 66°22' E 012°23'0 0.0
2017-Oct-19 05:30N 66°22' E 012°23'0 0.0
2017-Oct-19 05:00N 66°22' E 012°23'0 0.0
2017-Oct-19 04:30N 66°22' E 012°23'0 0.0
2017-Oct-19 04:00N 66°22' E 012°23'0 0.0
2017-Oct-19 03:30N 66°22' E 012°23'0 0.0
2017-Oct-19 03:00N 66°22' E 012°23'0 0.0
2017-Oct-19 02:30N 66°22' E 012°23'2 3.0
2017-Oct-19 02:00N 66°20' E 012°23'5 9.9
2017-Oct-19 01:30N 66°15' E 012°25'5 9.4
2017-Oct-19 01:00N 66°15' E 012°36'4 7.4
2017-Oct-19 00:30N 66°15' E 012°27'5 9.4
2017-Oct-19 00:00N 66°17' E 012°17'5 9.7
2017-Oct-18 23:30N 66°16' E 012°05'510.5
2017-Oct-18 23:00N 66°15' E 011°53'  
2017-Oct-16 17:36N 62°25' W 006°48'111.3
2017-Oct-16 17:30N 62°25' W 006°50'1010.6
2017-Oct-16 16:33N 62°19' W 007°08'2 8.0
2017-Oct-16 16:22N 62°18' W 007°07'0 1.0
2017-Oct-16 15:52N 62°18' W 007°06'0 0.0
2017-Oct-16 15:28N 62°18' W 007°06'0 0.0
2017-Oct-16 14:58N 62°18' W 007°06'0 0.0
2017-Oct-16 13:58N 62°18' W 007°06'0 0.0
2017-Oct-16 13:22N 62°18' W 007°06'0 0.0
2017-Oct-16 12:58N 62°18' W 007°06'0 0.0
2017-Oct-16 11:46N 62°18' W 007°06'0 0.0
2017-Oct-16 11:22N 62°18' W 007°06'0 0.0
2017-Oct-16 10:58N 62°18' W 007°06'0 0.0
2017-Oct-16 10:04N 62°18' W 007°06'0 0.0
2017-Oct-16 09:58N 62°18' W 007°06'0 0.0
2017-Oct-16 09:25N 62°18' W 007°06'0 0.0
2017-Oct-16 08:58N 62°18' W 007°06'0 0.0
2017-Oct-16 08:28N 62°18' W 007°06'0 0.0
2017-Oct-16 07:58N 62°18' W 007°06'0 0.0
2017-Oct-16 07:16N 62°18' W 007°06'0 0.0
2017-Oct-16 06:58N 62°18' W 007°06'0 0.0
2017-Oct-16 06:19N 62°18' W 007°06'0 0.0
2017-Oct-16 05:58N 62°18' W 007°06'0 0.0
2017-Oct-16 04:13N 62°18' W 007°06'0 0.0
2017-Oct-16 03:49N 62°18' W 007°06'0 0.0
2017-Oct-16 03:28N 62°18' W 007°06'0 0.0
2017-Oct-16 02:58N 62°18' W 007°06'0 0.0
2017-Oct-16 02:28N 62°18' W 007°06'0 0.0
2017-Oct-16 01:58N 62°18' W 007°06'0 0.0
2017-Oct-16 01:28N 62°18' W 007°06'0 0.0
2017-Oct-16 00:58N 62°18' W 007°06'0 0.0
2017-Oct-16 00:28N 62°18' W 007°06'0 0.0
2017-Oct-15 23:58N 62°18' W 007°06'0 0.0
2017-Oct-15 23:25N 62°18' W 007°06'0 0.0
2017-Oct-15 22:58N 62°18' W 007°06'0 0.0
2017-Oct-15 22:25N 62°18' W 007°06'0 0.0
2017-Oct-15 21:52N 62°18' W 007°06'0 0.0
2017-Oct-15 21:28N 62°18' W 007°06'0 0.0
2017-Oct-15 20:46N 62°18' W 007°06'0 0.0
2017-Oct-15 20:22N 62°18' W 007°06'0 0.0
2017-Oct-15 19:58N 62°18' W 007°06'0 0.0
2017-Oct-15 19:28N 62°18' W 007°06'0 0.0
2017-Oct-15 18:58N 62°18' W 007°06'0 0.0
2017-Oct-15 18:28N 62°18' W 007°06'0 0.0
2017-Oct-15 17:52N 62°18' W 007°06'0 0.0
2017-Oct-15 17:25N 62°18' W 007°06'0 0.0
2017-Oct-15 16:55N 62°18' W 007°06'0 0.0
2017-Oct-15 16:22N 62°18' W 007°06'0 0.0
2017-Oct-15 15:58N 62°18' W 007°06'0 0.0
2017-Oct-15 15:16N 62°18' W 007°06'0 0.3
2017-Oct-15 13:49N 62°18' W 007°06'5 7.2
2017-Oct-15 13:06N 62°21' W 006°58'210.3
2017-Oct-15 12:57N 62°21' W 006°55'4 9.9
2017-Oct-15 12:30N 62°18' W 006°48'4 8.4
2017-Oct-15 12:01N 62°14' W 006°47'0 0.0
2017-Oct-15 11:29N 62°14' W 006°47'0 0.1
2017-Oct-15 10:59N 62°14' W 006°47'0 0.1
2017-Oct-15 10:29N 62°14' W 006°47'0 0.0
2017-Oct-15 09:59N 62°14' W 006°47'0 0.0
2017-Oct-15 09:29N 62°14' W 006°47'0 0.0
2017-Oct-15 08:59N 62°14' W 006°47'0 0.0
2017-Oct-15 08:29N 62°14' W 006°47'0 0.0
2017-Oct-15 07:59N 62°14' W 006°47'0 0.2
2017-Oct-15 07:29N 62°14' W 006°47'0 0.1
2017-Oct-15 07:01N 62°14' W 006°47'1 1.3
2017-Oct-15 06:31N 62°14' W 006°48'0 0.0
2017-Oct-15 05:59N 62°14' W 006°48'0 0.0
2017-Oct-15 05:29N 62°14' W 006°48'0 0.0
2017-Oct-15 04:59N 62°14' W 006°48'0 0.0
2017-Oct-15 04:29N 62°14' W 006°48'0 0.0
2017-Oct-15 03:59N 62°14' W 006°48'0 0.0
2017-Oct-15 03:29N 62°14' W 006°48'0 0.0
2017-Oct-15 02:59N 62°14' W 006°48'0 0.0
2017-Oct-15 02:29N 62°14' W 006°48'0 0.0
2017-Oct-15 01:59N 62°14' W 006°48'240 5.7
2017-Oct-13 07:39N 64°47' W 013°42'2 8.1
2017-Oct-13 07:28N 64°49' W 013°42'3 7.6
2017-Oct-13 07:00N 64°52' W 013°43'3 6.7
2017-Oct-13 06:30N 64°54' W 013°49'1 0.1
2017-Oct-12 11:38N 64°54' W 013°51'110.0
2017-Oct-12 11:31N 64°54' W 013°49'5 9.1
2017-Oct-12 11:00N 64°50' W 013°41'  
Track history (hours):
 
Tides and Currents Weather Stations Pressure Air Temp Water Temp Dewpoint Dewpoint Depression Visibility Wind Speed Wind Dir Waves Ship Positions

Kaprifol

Last reported at 2017-Oct-19 19:58 UTC. Time now 2017-Oct-19 20:17 UTC.
Position N 66°22' E 012°23'.

Length 89 m; draft 5.7 m.

Type: Tanker. MMSI: 210445000.

Date/timePositionNaut miles runAvg speedWind from/ knotsBaromVisibWave heightAir tempDewpointWater temp
2017-Oct-19 19:58N 66°22' E 012°23'0 0.0
2017-Oct-19 19:28N 66°22' E 012°23'0 0.0
2017-Oct-19 18:58N 66°22' E 012°23'0 0.0
2017-Oct-19 18:28N 66°22' E 012°23'0 0.0
2017-Oct-19 17:58N 66°22' E 012°23'0 0.0
2017-Oct-19 17:28N 66°22' E 012°23'0 0.0
2017-Oct-19 16:58N 66°22' E 012°23'0 0.0
2017-Oct-19 16:28N 66°22' E 012°23'0 0.0
2017-Oct-19 15:58N 66°22' E 012°23'0 0.0
2017-Oct-19 15:28N 66°22' E 012°23'0 0.0
2017-Oct-19 14:58N 66°22' E 012°23'0 0.0
2017-Oct-19 14:28N 66°22' E 012°23'0 0.0
2017-Oct-19 13:58N 66°22' E 012°23'0 0.0
2017-Oct-19 13:28N 66°22' E 012°23'0 0.0
2017-Oct-19 12:58N 66°22' E 012°23'0 0.0
2017-Oct-19 12:28N 66°22' E 012°23'0 0.0
2017-Oct-19 11:58N 66°22' E 012°23'0 0.0
2017-Oct-19 11:28N 66°22' E 012°23'0 0.0
2017-Oct-19 11:01N 66°22' E 012°23'0 0.0
2017-Oct-19 10:31N 66°22' E 012°23'0 0.0
2017-Oct-19 10:01N 66°22' E 012°23'0 0.0
2017-Oct-19 09:30N 66°22' E 012°23'0 0.0
2017-Oct-19 09:00N 66°22' E 012°23'0 0.0
2017-Oct-19 08:30N 66°22' E 012°23'0 0.0
2017-Oct-19 08:00N 66°22' E 012°23'0 0.0
2017-Oct-19 07:30N 66°22' E 012°23'0 0.0
2017-Oct-19 07:00N 66°22' E 012°23'0 0.0
2017-Oct-19 06:30N 66°22' E 012°23'0 0.0
2017-Oct-19 06:00N 66°22' E 012°23'0 0.0
2017-Oct-19 05:30N 66°22' E 012°23'0 0.0
2017-Oct-19 05:00N 66°22' E 012°23'0 0.0
2017-Oct-19 04:30N 66°22' E 012°23'0 0.0
2017-Oct-19 04:00N 66°22' E 012°23'0 0.0
2017-Oct-19 03:30N 66°22' E 012°23'0 0.0
2017-Oct-19 03:00N 66°22' E 012°23'0 0.0
2017-Oct-19 02:30N 66°22' E 012°23'2 3.0
2017-Oct-19 02:00N 66°20' E 012°23'5 9.9
2017-Oct-19 01:30N 66°15' E 012°25'5 9.4
2017-Oct-19 01:00N 66°15' E 012°36'4 7.4
2017-Oct-19 00:30N 66°15' E 012°27'5 9.4
2017-Oct-19 00:00N 66°17' E 012°17'5 9.7
2017-Oct-18 23:30N 66°16' E 012°05'510.5
2017-Oct-18 23:00N 66°15' E 011°53'  
2017-Oct-16 17:36N 62°25' W 006°48'111.3
2017-Oct-16 17:30N 62°25' W 006°50'1010.6
2017-Oct-16 16:33N 62°19' W 007°08'2 8.0
2017-Oct-16 16:22N 62°18' W 007°07'0 1.0
2017-Oct-16 15:52N 62°18' W 007°06'0 0.0
2017-Oct-16 15:28N 62°18' W 007°06'0 0.0
2017-Oct-16 14:58N 62°18' W 007°06'0 0.0
2017-Oct-16 13:58N 62°18' W 007°06'0 0.0
2017-Oct-16 13:22N 62°18' W 007°06'0 0.0
2017-Oct-16 12:58N 62°18' W 007°06'0 0.0
2017-Oct-16 11:46N 62°18' W 007°06'0 0.0
2017-Oct-16 11:22N 62°18' W 007°06'0 0.0
2017-Oct-16 10:58N 62°18' W 007°06'0 0.0
2017-Oct-16 10:04N 62°18' W 007°06'0 0.0
2017-Oct-16 09:58N 62°18' W 007°06'0 0.0
2017-Oct-16 09:25N 62°18' W 007°06'0 0.0
2017-Oct-16 08:58N 62°18' W 007°06'0 0.0
2017-Oct-16 08:28N 62°18' W 007°06'0 0.0
2017-Oct-16 07:58N 62°18' W 007°06'0 0.0
2017-Oct-16 07:16N 62°18' W 007°06'0 0.0
2017-Oct-16 06:58N 62°18' W 007°06'0 0.0
2017-Oct-16 06:19N 62°18' W 007°06'0 0.0
2017-Oct-16 05:58N 62°18' W 007°06'0 0.0
2017-Oct-16 04:13N 62°18' W 007°06'0 0.0
2017-Oct-16 03:49N 62°18' W 007°06'0 0.0
2017-Oct-16 03:28N 62°18' W 007°06'0 0.0
2017-Oct-16 02:58N 62°18' W 007°06'0 0.0
2017-Oct-16 02:28N 62°18' W 007°06'0 0.0
2017-Oct-16 01:58N 62°18' W 007°06'0 0.0
2017-Oct-16 01:28N 62°18' W 007°06'0 0.0
2017-Oct-16 00:58N 62°18' W 007°06'0 0.0
2017-Oct-16 00:28N 62°18' W 007°06'0 0.0
2017-Oct-15 23:58N 62°18' W 007°06'0 0.0
2017-Oct-15 23:25N 62°18' W 007°06'0 0.0
2017-Oct-15 22:58N 62°18' W 007°06'0 0.0
2017-Oct-15 22:25N 62°18' W 007°06'0 0.0
2017-Oct-15 21:52N 62°18' W 007°06'0 0.0
2017-Oct-15 21:28N 62°18' W 007°06'0 0.0
2017-Oct-15 20:46N 62°18' W 007°06'0 0.0
2017-Oct-15 20:22N 62°18' W 007°06'0 0.0
2017-Oct-15 19:58N 62°18' W 007°06'0 0.0
2017-Oct-15 19:28N 62°18' W 007°06'0 0.0
2017-Oct-15 18:58N 62°18' W 007°06'0 0.0
2017-Oct-15 18:28N 62°18' W 007°06'0 0.0
2017-Oct-15 17:52N 62°18' W 007°06'0 0.0
2017-Oct-15 17:25N 62°18' W 007°06'0 0.0
2017-Oct-15 16:55N 62°18' W 007°06'0 0.0
2017-Oct-15 16:22N 62°18' W 007°06'0 0.0
2017-Oct-15 15:58N 62°18' W 007°06'0 0.0
2017-Oct-15 15:16N 62°18' W 007°06'0 0.3
2017-Oct-15 13:49N 62°18' W 007°06'5 7.2
2017-Oct-15 13:06N 62°21' W 006°58'210.3
2017-Oct-15 12:57N 62°21' W 006°55'4 9.9
2017-Oct-15 12:30N 62°18' W 006°48'4 8.4
2017-Oct-15 12:01N 62°14' W 006°47'0 0.0
2017-Oct-15 11:29N 62°14' W 006°47'0 0.1
2017-Oct-15 10:59N 62°14' W 006°47'0 0.1
2017-Oct-15 10:29N 62°14' W 006°47'0 0.0
2017-Oct-15 09:59N 62°14' W 006°47'0 0.0
2017-Oct-15 09:29N 62°14' W 006°47'0 0.0
2017-Oct-15 08:59N 62°14' W 006°47'0 0.0
2017-Oct-15 08:29N 62°14' W 006°47'0 0.0
2017-Oct-15 07:59N 62°14' W 006°47'0 0.2
2017-Oct-15 07:29N 62°14' W 006°47'0 0.1
2017-Oct-15 07:01N 62°14' W 006°47'1 1.3
2017-Oct-15 06:31N 62°14' W 006°48'0 0.0
2017-Oct-15 05:59N 62°14' W 006°48'0 0.0
2017-Oct-15 05:29N 62°14' W 006°48'0 0.0
2017-Oct-15 04:59N 62°14' W 006°48'0 0.0
2017-Oct-15 04:29N 62°14' W 006°48'0 0.0
2017-Oct-15 03:59N 62°14' W 006°48'0 0.0
2017-Oct-15 03:29N 62°14' W 006°48'0 0.0
2017-Oct-15 02:59N 62°14' W 006°48'0 0.0
2017-Oct-15 02:29N 62°14' W 006°48'0 0.0
2017-Oct-15 01:59N 62°14' W 006°48'240 5.7
2017-Oct-13 07:39N 64°47' W 013°42'2 8.1
2017-Oct-13 07:28N 64°49' W 013°42'3 7.6
2017-Oct-13 07:00N 64°52' W 013°43'3 6.7
2017-Oct-13 06:30N 64°54' W 013°49'1 0.1
2017-Oct-12 11:38N 64°54' W 013°51'110.0
2017-Oct-12 11:31N 64°54' W 013°49'5 9.1
2017-Oct-12 11:00N 64°50' W 013°41'  

Dump ship's entire track history